sensor_id;sensor_type;location;lat;lon;timestamp;pressure;altitude;pressure_sealevel;temperature;humidity
20368;BME280;10343;52.402;9.796;2023-02-15T00:01:43;102371.28;;;6.01;100.00
20368;BME280;10343;52.402;9.796;2023-02-15T00:04:13;102375.47;;;5.94;100.00
20368;BME280;10343;52.402;9.796;2023-02-15T00:06:42;102371.94;;;5.92;100.00
20368;BME280;10343;52.402;9.796;2023-02-15T00:09:11;102366.38;;;5.80;100.00
20368;BME280;10343;52.402;9.796;2023-02-15T00:11:39;102352.66;;;5.57;100.00
20368;BME280;10343;52.402;9.796;2023-02-15T00:14:10;102356.22;;;5.59;100.00
20368;BME280;10343;52.402;9.796;2023-02-15T00:16:39;102351.84;;;5.59;100.00
20368;BME280;10343;52.402;9.796;2023-02-15T00:19:08;102351.75;;;5.56;100.00
20368;BME280;10343;52.402;9.796;2023-02-15T00:21:38;102349.28;;;5.63;100.00
20368;BME280;10343;52.402;9.796;2023-02-15T00:24:10;102345.91;;;5.68;100.00
20368;BME280;10343;52.402;9.796;2023-02-15T00:26:39;102351.47;;;5.81;100.00
20368;BME280;10343;52.402;9.796;2023-02-15T00:29:07;102352.81;;;6.00;100.00
20368;BME280;10343;52.402;9.796;2023-02-15T00:31:36;102353.53;;;5.94;100.00
20368;BME280;10343;52.402;9.796;2023-02-15T00:34:06;102342.56;;;5.75;100.00
20368;BME280;10343;52.402;9.796;2023-02-15T00:36:34;102327.25;;;5.59;100.00
20368;BME280;10343;52.402;9.796;2023-02-15T00:39:03;102343.97;;;5.98;100.00
20368;BME280;10343;52.402;9.796;2023-02-15T00:41:34;102343.06;;;5.97;100.00
20368;BME280;10343;52.402;9.796;2023-02-15T00:44:03;102327.06;;;5.50;100.00
20368;BME280;10343;52.402;9.796;2023-02-15T00:46:31;102311.03;;;5.39;100.00
20368;BME280;10343;52.402;9.796;2023-02-15T00:48:59;102312.09;;;5.47;100.00
20368;BME280;10343;52.402;9.796;2023-02-15T00:51:27;102309.81;;;5.63;100.00
20368;BME280;10343;52.402;9.796;2023-02-15T00:53:55;102331.97;;;6.09;100.00
20368;BME280;10343;52.402;9.796;2023-02-15T00:56:23;102335.97;;;6.33;100.00
20368;BME280;10343;52.402;9.796;2023-02-15T00:58:52;102331.19;;;6.13;100.00
20368;BME280;10343;52.402;9.796;2023-02-15T01:01:20;102334.81;;;6.20;100.00
20368;BME280;10343;52.402;9.796;2023-02-15T01:03:50;102341.59;;;6.08;100.00
20368;BME280;10343;52.402;9.796;2023-02-15T01:06:18;102338.81;;;6.01;100.00
20368;BME280;10343;52.402;9.796;2023-02-15T01:08:46;102334.34;;;5.98;100.00
20368;BME280;10343;52.402;9.796;2023-02-15T01:11:16;102335.31;;;6.03;100.00
20368;BME280;10343;52.402;9.796;2023-02-15T01:13:52;102330.03;;;5.64;100.00
20368;BME280;10343;52.402;9.796;2023-02-15T01:16:20;102318.44;;;5.55;100.00
20368;BME280;10343;52.402;9.796;2023-02-15T01:18:49;102322.59;;;5.85;100.00
20368;BME280;10343;52.402;9.796;2023-02-15T01:21:19;102322.31;;;6.09;100.00
20368;BME280;10343;52.402;9.796;2023-02-15T01:23:47;102324.09;;;6.10;100.00
20368;BME280;10343;52.402;9.796;2023-02-15T01:26:16;102323.94;;;6.04;100.00
20368;BME280;10343;52.402;9.796;2023-02-15T01:28:44;102313.59;;;5.74;100.00
20368;BME280;10343;52.402;9.796;2023-02-15T01:31:15;102313.75;;;5.80;100.00
20368;BME280;10343;52.402;9.796;2023-02-15T01:33:44;102310.03;;;5.72;100.00
20368;BME280;10343;52.402;9.796;2023-02-15T01:36:13;102314.78;;;5.87;100.00
20368;BME280;10343;52.402;9.796;2023-02-15T01:38:44;102317.81;;;6.05;100.00
20368;BME280;10343;52.402;9.796;2023-02-15T01:41:12;102315.72;;;5.92;100.00
20368;BME280;10343;52.402;9.796;2023-02-15T01:43:52;102310.59;;;5.97;100.00
20368;BME280;10343;52.402;9.796;2023-02-15T01:46:27;102307.97;;;5.58;100.00
20368;BME280;10343;52.402;9.796;2023-02-15T01:49:02;102304.19;;;5.47;100.00
20368;BME280;10343;52.402;9.796;2023-02-15T01:51:33;102302.63;;;5.55;100.00
20368;BME280;10343;52.402;9.796;2023-02-15T01:54:05;102301.91;;;5.61;100.00
20368;BME280;10343;52.402;9.796;2023-02-15T01:56:36;102302.72;;;5.58;100.00
20368;BME280;10343;52.402;9.796;2023-02-15T01:59:08;102304.69;;;5.69;100.00
20368;BME280;10343;52.402;9.796;2023-02-15T02:01:38;102294.16;;;5.69;100.00
20368;BME280;10343;52.402;9.796;2023-02-15T02:04:11;102299.69;;;5.81;100.00
20368;BME280;10343;52.402;9.796;2023-02-15T02:06:41;102301.22;;;6.08;100.00
20368;BME280;10343;52.402;9.796;2023-02-15T02:09:09;102295.38;;;6.23;100.00
20368;BME280;10343;52.402;9.796;2023-02-15T02:11:38;102297.00;;;6.16;100.00
20368;BME280;10343;52.402;9.796;2023-02-15T02:14:07;102288.25;;;6.17;100.00
20368;BME280;10343;52.402;9.796;2023-02-15T02:16:42;102286.34;;;6.11;100.00
20368;BME280;10343;52.402;9.796;2023-02-15T02:19:32;102289.88;;;6.12;100.00
20368;BME280;10343;52.402;9.796;2023-02-15T02:25:24;102275.44;;;5.94;100.00
20368;BME280;10343;52.402;9.796;2023-02-15T02:28:20;102281.03;;;6.10;100.00
20368;BME280;10343;52.402;9.796;2023-02-15T02:31:11;102277.03;;;6.27;100.00
20368;BME280;10343;52.402;9.796;2023-02-15T02:33:53;102276.81;;;6.17;100.00
20368;BME280;10343;52.402;9.796;2023-02-15T02:36:32;102270.34;;;6.01;100.00
20368;BME280;10343;52.402;9.796;2023-02-15T02:39:12;102269.28;;;5.94;100.00
20368;BME280;10343;52.402;9.796;2023-02-15T02:41:46;102269.56;;;6.05;100.00
20368;BME280;10343;52.402;9.796;2023-02-15T02:44:22;102261.22;;;5.86;100.00
20368;BME280;10343;52.402;9.796;2023-02-15T02:46:54;102260.34;;;5.86;100.00
20368;BME280;10343;52.402;9.796;2023-02-15T02:49:33;102255.47;;;6.04;100.00
20368;BME280;10343;52.402;9.796;2023-02-15T02:52:04;102260.81;;;6.07;100.00
20368;BME280;10343;52.402;9.796;2023-02-15T02:54:34;102253.88;;;6.12;100.00
20368;BME280;10343;52.402;9.796;2023-02-15T02:57:06;102256.75;;;6.23;99.18
20368;BME280;10343;52.402;9.796;2023-02-15T02:59:38;102258.28;;;6.12;99.22
20368;BME280;10343;52.402;9.796;2023-02-15T03:02:11;102248.50;;;6.06;99.79
20368;BME280;10343;52.402;9.796;2023-02-15T03:04:46;102250.63;;;5.83;100.00
20368;BME280;10343;52.402;9.796;2023-02-15T03:07:18;102250.88;;;5.95;99.67
20368;BME280;10343;52.402;9.796;2023-02-15T03:09:51;102246.75;;;6.07;99.01
20368;BME280;10343;52.402;9.796;2023-02-15T03:12:21;102249.94;;;5.93;99.45
20368;BME280;10343;52.402;9.796;2023-02-15T03:14:53;102245.22;;;5.77;99.72
20368;BME280;10343;52.402;9.796;2023-02-15T03:17:25;102243.38;;;5.73;100.00
20368;BME280;10343;52.402;9.796;2023-02-15T03:19:58;102242.75;;;5.85;100.00
20368;BME280;10343;52.402;9.796;2023-02-15T03:22:30;102232.59;;;6.02;98.77
20368;BME280;10343;52.402;9.796;2023-02-15T03:25:04;102235.66;;;5.81;100.00
20368;BME280;10343;52.402;9.796;2023-02-15T03:27:37;102224.84;;;5.68;100.00
20368;BME280;10343;52.402;9.796;2023-02-15T03:30:09;102232.03;;;5.75;99.72
20368;BME280;10343;52.402;9.796;2023-02-15T03:32:39;102225.28;;;5.87;99.09
20368;BME280;10343;52.402;9.796;2023-02-15T03:35:10;102231.78;;;6.04;97.39
20368;BME280;10343;52.402;9.796;2023-02-15T03:37:41;102222.31;;;5.73;98.69
20368;BME280;10343;52.402;9.796;2023-02-15T03:40:16;102237.63;;;5.91;97.66
20368;BME280;10343;52.402;9.796;2023-02-15T03:43:11;102231.94;;;6.12;96.35
20368;BME280;10343;52.402;9.796;2023-02-15T03:45:45;102226.88;;;5.80;97.91
20368;BME280;10343;52.402;9.796;2023-02-15T03:48:24;102222.72;;;5.91;97.22
20368;BME280;10343;52.402;9.796;2023-02-15T03:50:57;102230.59;;;5.90;97.04
20368;BME280;10343;52.402;9.796;2023-02-15T03:53:46;102240.31;;;5.92;96.53
20368;BME280;10343;52.402;9.796;2023-02-15T03:56:15;102237.06;;;6.06;95.28
20368;BME280;10343;52.402;9.796;2023-02-15T03:58:43;102238.09;;;6.12;94.72
20368;BME280;10343;52.402;9.796;2023-02-15T04:01:34;102241.56;;;6.11;94.28
20368;BME280;10343;52.402;9.796;2023-02-15T04:04:24;102243.31;;;6.09;94.51
20368;BME280;10343;52.402;9.796;2023-02-15T04:06:53;102240.13;;;5.85;95.57
20368;BME280;10343;52.402;9.796;2023-02-15T04:09:21;102227.38;;;5.62;97.52
20368;BME280;10343;52.402;9.796;2023-02-15T04:12:07;102228.44;;;5.70;97.45
20368;BME280;10343;52.402;9.796;2023-02-15T04:14:35;102224.78;;;5.65;98.20
20368;BME280;10343;52.402;9.796;2023-02-15T04:17:21;102227.84;;;5.85;95.46
20368;BME280;10343;52.402;9.796;2023-02-15T04:19:49;102223.53;;;5.89;95.36
20368;BME280;10343;52.402;9.796;2023-02-15T04:22:35;102217.50;;;5.94;95.24
20368;BME280;10343;52.402;9.796;2023-02-15T04:25:21;102221.22;;;6.03;93.46
20368;BME280;10343;52.402;9.796;2023-02-15T04:27:50;102222.88;;;5.98;93.92
20368;BME280;10343;52.402;9.796;2023-02-15T04:30:19;102223.81;;;6.01;93.97
20368;BME280;10343;52.402;9.796;2023-02-15T04:32:48;102221.06;;;5.97;94.23
20368;BME280;10343;52.402;9.796;2023-02-15T04:35:16;102214.78;;;5.90;94.19
20368;BME280;10343;52.402;9.796;2023-02-15T04:37:45;102217.53;;;5.55;96.96
20368;BME280;10343;52.402;9.796;2023-02-15T04:40:14;102210.63;;;5.60;96.52
20368;BME280;10343;52.402;9.796;2023-02-15T04:42:47;102217.91;;;5.70;95.74
20368;BME280;10343;52.402;9.796;2023-02-15T04:45:16;102217.13;;;5.76;95.81
20368;BME280;10343;52.402;9.796;2023-02-15T04:47:44;102204.03;;;5.79;94.78
20368;BME280;10343;52.402;9.796;2023-02-15T04:50:11;102215.34;;;5.75;94.23
20368;BME280;10343;52.402;9.796;2023-02-15T04:52:39;102204.94;;;5.81;93.18
20368;BME280;10343;52.402;9.796;2023-02-15T04:55:09;102205.91;;;5.85;93.23
20368;BME280;10343;52.402;9.796;2023-02-15T04:57:36;102204.78;;;5.72;93.66
20368;BME280;10343;52.402;9.796;2023-02-15T05:00:05;102198.06;;;5.88;92.55
20368;BME280;10343;52.402;9.796;2023-02-15T05:02:35;102188.06;;;5.71;94.23
20368;BME280;10343;52.402;9.796;2023-02-15T05:05:03;102194.41;;;5.81;93.91
20368;BME280;10343;52.402;9.796;2023-02-15T05:07:31;102196.19;;;5.82;93.69
20368;BME280;10343;52.402;9.796;2023-02-15T05:09:59;102189.09;;;5.78;93.79
20368;BME280;10343;52.402;9.796;2023-02-15T05:12:28;102187.31;;;5.77;93.80
20368;BME280;10343;52.402;9.796;2023-02-15T05:14:56;102190.03;;;5.80;93.65
20368;BME280;10343;52.402;9.796;2023-02-15T05:17:24;102193.44;;;5.76;93.40
20368;BME280;10343;52.402;9.796;2023-02-15T05:19:52;102206.47;;;5.70;93.83
20368;BME280;10343;52.402;9.796;2023-02-15T05:22:19;102201.56;;;5.87;92.95
20368;BME280;10343;52.402;9.796;2023-02-15T05:24:47;102201.47;;;5.82;92.86
20368;BME280;10343;52.402;9.796;2023-02-15T05:27:43;102193.06;;;5.59;94.22
20368;BME280;10343;52.402;9.796;2023-02-15T05:30:30;102192.53;;;5.75;93.56
20368;BME280;10343;52.402;9.796;2023-02-15T05:33:01;102195.31;;;5.82;93.30
20368;BME280;10343;52.402;9.796;2023-02-15T05:35:29;102190.41;;;5.57;94.02
20368;BME280;10343;52.402;9.796;2023-02-15T05:37:57;102199.09;;;5.53;95.42
20368;BME280;10343;52.402;9.796;2023-02-15T05:40:25;102190.47;;;5.60;94.43
20368;BME280;10343;52.402;9.796;2023-02-15T05:42:55;102183.84;;;5.38;96.22
20368;BME280;10343;52.402;9.796;2023-02-15T05:45:23;102171.91;;;5.13;98.70
20368;BME280;10343;52.402;9.796;2023-02-15T05:47:51;102166.56;;;5.10;99.26
20368;BME280;10343;52.402;9.796;2023-02-15T05:50:19;102166.34;;;5.01;100.00
20368;BME280;10343;52.402;9.796;2023-02-15T05:52:47;102161.50;;;4.81;100.00
20368;BME280;10343;52.402;9.796;2023-02-15T05:55:18;102165.25;;;4.91;100.00
20368;BME280;10343;52.402;9.796;2023-02-15T05:57:46;102165.44;;;4.99;100.00
20368;BME280;10343;52.402;9.796;2023-02-15T06:00:16;102157.63;;;5.02;100.00
20368;BME280;10343;52.402;9.796;2023-02-15T06:02:44;102155.09;;;5.06;100.00
20368;BME280;10343;52.402;9.796;2023-02-15T06:05:15;102167.97;;;4.96;100.00
20368;BME280;10343;52.402;9.796;2023-02-15T06:07:43;102167.53;;;4.77;100.00
20368;BME280;10343;52.402;9.796;2023-02-15T06:10:11;102173.16;;;4.92;100.00
20368;BME280;10343;52.402;9.796;2023-02-15T06:12:39;102166.13;;;4.91;100.00
20368;BME280;10343;52.402;9.796;2023-02-15T06:15:08;102174.72;;;4.84;100.00
20368;BME280;10343;52.402;9.796;2023-02-15T06:17:37;102170.44;;;4.88;99.83
20368;BME280;10343;52.402;9.796;2023-02-15T06:20:06;102182.66;;;4.87;99.40
20368;BME280;10343;52.402;9.796;2023-02-15T06:22:35;102178.19;;;4.83;100.00
20368;BME280;10343;52.402;9.796;2023-02-15T06:25:03;102177.69;;;4.98;98.62
20368;BME280;10343;52.402;9.796;2023-02-15T06:27:31;102178.41;;;5.29;97.42
20368;BME280;10343;52.402;9.796;2023-02-15T06:29:58;102185.69;;;5.03;96.61
20368;BME280;10343;52.402;9.796;2023-02-15T06:32:26;102175.25;;;5.06;97.41
20368;BME280;10343;52.402;9.796;2023-02-15T06:34:56;102170.41;;;4.86;98.96
20368;BME280;10343;52.402;9.796;2023-02-15T06:37:23;102172.88;;;4.80;99.37
20368;BME280;10343;52.402;9.796;2023-02-15T06:39:51;102170.06;;;5.09;97.30
20368;BME280;10343;52.402;9.796;2023-02-15T06:42:21;102168.88;;;4.96;96.84
20368;BME280;10343;52.402;9.796;2023-02-15T06:44:49;102158.88;;;4.81;97.92
20368;BME280;10343;52.402;9.796;2023-02-15T06:47:17;102154.44;;;4.79;99.23
20368;BME280;10343;52.402;9.796;2023-02-15T06:49:44;102163.81;;;4.67;98.91
20368;BME280;10343;52.402;9.796;2023-02-15T06:52:13;102161.81;;;4.58;99.15
20368;BME280;10343;52.402;9.796;2023-02-15T06:54:42;102161.38;;;5.13;96.03
20368;BME280;10343;52.402;9.796;2023-02-15T06:57:09;102172.50;;;5.41;93.37
20368;BME280;10343;52.402;9.796;2023-02-15T06:59:37;102172.63;;;5.06;95.06
20368;BME280;10343;52.402;9.796;2023-02-15T07:02:05;102171.81;;;5.08;95.41
20368;BME280;10343;52.402;9.796;2023-02-15T07:04:33;102171.00;;;4.76;96.99
20368;BME280;10343;52.402;9.796;2023-02-15T07:07:02;102172.34;;;4.95;97.01
20368;BME280;10343;52.402;9.796;2023-02-15T07:09:32;102169.16;;;4.72;97.77
20368;BME280;10343;52.402;9.796;2023-02-15T07:12:00;102170.56;;;4.94;96.98
20368;BME280;10343;52.402;9.796;2023-02-15T07:14:45;102169.97;;;5.06;95.28
20368;BME280;10343;52.402;9.796;2023-02-15T07:17:13;102159.59;;;4.74;97.24
20368;BME280;10343;52.402;9.796;2023-02-15T07:20:01;102164.13;;;4.81;97.39
20368;BME280;10343;52.402;9.796;2023-02-15T07:22:29;102169.53;;;4.87;96.67
20368;BME280;10343;52.402;9.796;2023-02-15T07:24:58;102162.75;;;4.61;97.41
20368;BME280;10343;52.402;9.796;2023-02-15T07:27:26;102173.22;;;4.96;96.47
20368;BME280;10343;52.402;9.796;2023-02-15T07:29:54;102174.88;;;4.90;95.55
20368;BME280;10343;52.402;9.796;2023-02-15T07:32:22;102170.88;;;4.70;96.67
20368;BME280;10343;52.402;9.796;2023-02-15T07:34:50;102172.81;;;4.77;97.19
20368;BME280;10343;52.402;9.796;2023-02-15T07:37:18;102172.34;;;4.95;95.57
20368;BME280;10343;52.402;9.796;2023-02-15T07:39:46;102180.50;;;5.06;94.48
20368;BME280;10343;52.402;9.796;2023-02-15T07:42:15;102179.03;;;5.19;94.14
20368;BME280;10343;52.402;9.796;2023-02-15T07:44:46;102179.38;;;5.34;93.48
20368;BME280;10343;52.402;9.796;2023-02-15T07:47:14;102180.34;;;5.00;94.67
20368;BME280;10343;52.402;9.796;2023-02-15T07:49:42;102176.81;;;4.98;95.29
20368;BME280;10343;52.402;9.796;2023-02-15T07:52:10;102175.69;;;4.88;96.47
20368;BME280;10343;52.402;9.796;2023-02-15T07:54:38;102167.91;;;4.92;96.11
20368;BME280;10343;52.402;9.796;2023-02-15T07:57:05;102167.25;;;5.41;94.56
20368;BME280;10343;52.402;9.796;2023-02-15T07:59:35;102163.44;;;5.26;93.56
20368;BME280;10343;52.402;9.796;2023-02-15T08:02:03;102173.94;;;5.25;94.09
20368;BME280;10343;52.402;9.796;2023-02-15T08:04:32;102170.66;;;5.37;92.94
20368;BME280;10343;52.402;9.796;2023-02-15T08:07:00;102156.72;;;5.41;91.94
20368;BME280;10343;52.402;9.796;2023-02-15T08:09:28;102148.50;;;5.25;94.24
20368;BME280;10343;52.402;9.796;2023-02-15T08:11:56;102144.78;;;5.55;92.20
20368;BME280;10343;52.402;9.796;2023-02-15T08:14:24;102150.53;;;5.80;90.17
20368;BME280;10343;52.402;9.796;2023-02-15T08:16:54;102157.06;;;5.99;88.05
20368;BME280;10343;52.402;9.796;2023-02-15T08:19:24;102152.25;;;5.78;88.61
20368;BME280;10343;52.402;9.796;2023-02-15T08:21:54;102148.94;;;5.88;88.45
20368;BME280;10343;52.402;9.796;2023-02-15T08:24:25;102150.97;;;6.02;87.53
20368;BME280;10343;52.402;9.796;2023-02-15T08:26:53;102145.44;;;5.89;86.87
20368;BME280;10343;52.402;9.796;2023-02-15T08:29:23;102152.13;;;5.72;87.41
20368;BME280;10343;52.402;9.796;2023-02-15T08:31:55;102141.75;;;5.81;87.31
20368;BME280;10343;52.402;9.796;2023-02-15T08:34:25;102137.56;;;5.47;90.16
20368;BME280;10343;52.402;9.796;2023-02-15T08:36:53;102139.41;;;5.95;88.43
20368;BME280;10343;52.402;9.796;2023-02-15T08:39:20;102133.25;;;5.94;88.00
20368;BME280;10343;52.402;9.796;2023-02-15T08:41:48;102127.50;;;5.70;88.85
20368;BME280;10343;52.402;9.796;2023-02-15T08:44:18;102131.63;;;5.98;87.40
20368;BME280;10343;52.402;9.796;2023-02-15T08:46:48;102138.47;;;6.39;85.56
20368;BME280;10343;52.402;9.796;2023-02-15T08:49:19;102130.69;;;6.43;84.18
20368;BME280;10343;52.402;9.796;2023-02-15T08:51:48;102131.16;;;6.22;85.31
20368;BME280;10343;52.402;9.796;2023-02-15T08:54:18;102136.44;;;6.73;82.82
20368;BME280;10343;52.402;9.796;2023-02-15T08:56:46;102130.47;;;6.85;80.13
20368;BME280;10343;52.402;9.796;2023-02-15T08:59:16;102133.16;;;6.34;81.73
20368;BME280;10343;52.402;9.796;2023-02-15T09:01:45;102129.66;;;6.35;83.50
20368;BME280;10343;52.402;9.796;2023-02-15T09:04:13;102134.69;;;6.21;83.60
20368;BME280;10343;52.402;9.796;2023-02-15T09:06:46;102129.72;;;6.40;83.06
20368;BME280;10343;52.402;9.796;2023-02-15T09:09:15;102132.81;;;6.68;80.52
20368;BME280;10343;52.402;9.796;2023-02-15T09:11:44;102128.13;;;6.50;81.12
20368;BME280;10343;52.402;9.796;2023-02-15T09:14:14;102131.56;;;6.45;80.59
20368;BME280;10343;52.402;9.796;2023-02-15T09:16:44;102140.91;;;6.80;80.93
20368;BME280;10343;52.402;9.796;2023-02-15T09:19:12;102139.72;;;6.59;80.05
20368;BME280;10343;52.402;9.796;2023-02-15T09:21:40;102143.56;;;6.80;80.74
20368;BME280;10343;52.402;9.796;2023-02-15T09:24:12;102142.47;;;7.25;78.07
20368;BME280;10343;52.402;9.796;2023-02-15T09:26:41;102155.81;;;7.35;77.36
20368;BME280;10343;52.402;9.796;2023-02-15T09:29:10;102143.91;;;7.02;78.45
20368;BME280;10343;52.402;9.796;2023-02-15T09:31:40;102136.75;;;6.94;79.19
20368;BME280;10343;52.402;9.796;2023-02-15T09:34:11;102135.69;;;7.43;77.29
20368;BME280;10343;52.402;9.796;2023-02-15T09:36:40;102139.81;;;7.22;77.47
20368;BME280;10343;52.402;9.796;2023-02-15T09:39:11;102129.94;;;7.09;78.90
20368;BME280;10343;52.402;9.796;2023-02-15T09:42:05;102137.22;;;7.28;77.32
20368;BME280;10343;52.402;9.796;2023-02-15T09:45:04;102130.84;;;7.11;78.09
20368;BME280;10343;52.402;9.796;2023-02-15T09:47:58;102125.28;;;7.55;75.93
20368;BME280;10343;52.402;9.796;2023-02-15T09:50:34;102134.03;;;7.51;75.91
20368;BME280;10343;52.402;9.796;2023-02-15T09:53:20;102140.00;;;7.38;76.13
20368;BME280;10343;52.402;9.796;2023-02-15T09:56:00;102130.91;;;7.14;77.71
20368;BME280;10343;52.402;9.796;2023-02-15T09:58:39;102134.44;;;7.85;75.19
20368;BME280;10343;52.402;9.796;2023-02-15T10:01:17;102130.63;;;7.61;74.76
20368;BME280;10343;52.402;9.796;2023-02-15T10:03:58;102129.63;;;7.53;75.56
20368;BME280;10343;52.402;9.796;2023-02-15T10:06:36;102131.00;;;7.92;73.98
20368;BME280;10343;52.402;9.796;2023-02-15T10:09:28;102130.28;;;7.34;76.30
20368;BME280;10343;52.402;9.796;2023-02-15T10:12:23;102126.72;;;8.05;73.85
20368;BME280;10343;52.402;9.796;2023-02-15T10:15:09;102131.50;;;7.60;74.94
20368;BME280;10343;52.402;9.796;2023-02-15T10:17:54;102128.66;;;8.23;73.54
20368;BME280;10343;52.402;9.796;2023-02-15T10:20:32;102133.06;;;8.24;72.99
20368;BME280;10343;52.402;9.796;2023-02-15T10:23:15;102119.72;;;8.07;74.00
20368;BME280;10343;52.402;9.796;2023-02-15T10:25:52;102121.06;;;8.54;72.40
20368;BME280;10343;52.402;9.796;2023-02-15T10:28:29;102117.94;;;8.06;72.53
20368;BME280;10343;52.402;9.796;2023-02-15T10:31:04;102123.69;;;8.53;71.65
20368;BME280;10343;52.402;9.796;2023-02-15T10:33:38;102110.69;;;8.85;70.30
20368;BME280;10343;52.402;9.796;2023-02-15T10:36:27;102114.38;;;9.09;69.50
20368;BME280;10343;52.402;9.796;2023-02-15T10:39:03;102125.44;;;8.55;69.20
20368;BME280;10343;52.402;9.796;2023-02-15T10:41:39;102117.00;;;8.03;73.33
20368;BME280;10343;52.402;9.796;2023-02-15T10:44:32;102109.78;;;8.80;71.07
20368;BME280;10343;52.402;9.796;2023-02-15T10:47:19;102115.47;;;9.49;68.50
20368;BME280;10343;52.402;9.796;2023-02-15T10:50:07;102115.13;;;8.91;69.47
20368;BME280;10343;52.402;9.796;2023-02-15T10:52:51;102110.66;;;8.79;70.82
20368;BME280;10343;52.402;9.796;2023-02-15T10:55:33;102105.31;;;8.74;71.60
20368;BME280;10343;52.402;9.796;2023-02-15T10:58:10;102103.41;;;8.50;71.50
20368;BME280;10343;52.402;9.796;2023-02-15T11:00:45;102102.78;;;8.88;69.00
20368;BME280;10343;52.402;9.796;2023-02-15T11:03:26;102103.19;;;9.70;66.55
20368;BME280;10343;52.402;9.796;2023-02-15T11:06:02;102104.13;;;9.89;64.98
20368;BME280;10343;52.402;9.796;2023-02-15T11:08:34;102107.69;;;10.19;64.86
20368;BME280;10343;52.402;9.796;2023-02-15T11:11:06;102090.91;;;10.03;63.57
20368;BME280;10343;52.402;9.796;2023-02-15T11:13:39;102098.69;;;9.49;63.59
20368;BME280;10343;52.402;9.796;2023-02-15T11:16:14;102091.59;;;9.35;65.95
20368;BME280;10343;52.402;9.796;2023-02-15T11:18:48;102089.69;;;9.07;67.64
20368;BME280;10343;52.402;9.796;2023-02-15T11:21:21;102091.72;;;9.76;64.84
20368;BME280;10343;52.402;9.796;2023-02-15T11:23:51;102088.16;;;9.67;64.62
20368;BME280;10343;52.402;9.796;2023-02-15T11:26:24;102077.59;;;9.80;64.68
20368;BME280;10343;52.402;9.796;2023-02-15T11:28:57;102074.84;;;9.43;65.85
20368;BME280;10343;52.402;9.796;2023-02-15T11:31:37;102077.66;;;10.08;64.99
20368;BME280;10343;52.402;9.796;2023-02-15T11:34:14;102076.78;;;10.24;63.34
20368;BME280;10343;52.402;9.796;2023-02-15T11:36:47;102083.84;;;10.16;63.64
20368;BME280;10343;52.402;9.796;2023-02-15T11:39:17;102072.38;;;10.69;62.46
20368;BME280;10343;52.402;9.796;2023-02-15T11:41:49;102075.03;;;10.69;62.38
20368;BME280;10343;52.402;9.796;2023-02-15T11:44:23;102075.78;;;11.18;60.32
20368;BME280;10343;52.402;9.796;2023-02-15T11:46:54;102076.72;;;11.03;59.88
20368;BME280;10343;52.402;9.796;2023-02-15T11:49:24;102075.00;;;10.32;61.57
20368;BME280;10343;52.402;9.796;2023-02-15T11:51:55;102071.47;;;10.27;62.20
20368;BME280;10343;52.402;9.796;2023-02-15T11:54:28;102073.28;;;10.48;62.03
20368;BME280;10343;52.402;9.796;2023-02-15T11:56:59;102065.31;;;10.53;61.37
20368;BME280;10343;52.402;9.796;2023-02-15T11:59:33;102064.44;;;10.56;61.53
20368;BME280;10343;52.402;9.796;2023-02-15T12:02:15;102052.91;;;10.74;61.37
20368;BME280;10343;52.402;9.796;2023-02-15T12:04:48;102055.47;;;11.04;60.76
20368;BME280;10343;52.402;9.796;2023-02-15T12:07:20;102046.50;;;11.38;59.09
20368;BME280;10343;52.402;9.796;2023-02-15T12:09:56;102048.28;;;11.41;58.87
20368;BME280;10343;52.402;9.796;2023-02-15T12:12:28;102042.06;;;11.38;58.07
20368;BME280;10343;52.402;9.796;2023-02-15T12:14:58;102045.44;;;11.71;57.23
20368;BME280;10343;52.402;9.796;2023-02-15T12:17:30;102043.69;;;11.67;56.86
20368;BME280;10343;52.402;9.796;2023-02-15T12:20:01;102050.19;;;10.92;59.04
20368;BME280;10343;52.402;9.796;2023-02-15T12:22:31;102044.94;;;10.78;60.47
20368;BME280;10343;52.402;9.796;2023-02-15T12:25:02;102048.38;;;11.17;59.27
20368;BME280;10343;52.402;9.796;2023-02-15T12:27:32;102050.13;;;11.15;60.20
20368;BME280;10343;52.402;9.796;2023-02-15T12:30:05;102042.06;;;11.38;59.90
20368;BME280;10343;52.402;9.796;2023-02-15T12:32:46;102043.59;;;11.83;58.60
20368;BME280;10343;52.402;9.796;2023-02-15T12:35:20;102036.66;;;11.60;58.32
20368;BME280;10343;52.402;9.796;2023-02-15T12:37:54;102025.22;;;11.46;59.29
20368;BME280;10343;52.402;9.796;2023-02-15T12:40:24;102026.09;;;11.48;59.05
20368;BME280;10343;52.402;9.796;2023-02-15T12:42:57;102017.84;;;11.89;58.86
20368;BME280;10343;52.402;9.796;2023-02-15T12:45:26;102012.41;;;12.11;57.38
20368;BME280;10343;52.402;9.796;2023-02-15T12:48:13;102020.75;;;11.57;58.14
20368;BME280;10343;52.402;9.796;2023-02-15T12:50:43;102024.00;;;11.99;58.24
20368;BME280;10343;52.402;9.796;2023-02-15T12:53:17;102021.28;;;12.09;57.33
20368;BME280;10343;52.402;9.796;2023-02-15T12:55:51;102017.28;;;12.59;55.83
20368;BME280;10343;52.402;9.796;2023-02-15T12:58:21;102019.41;;;13.05;54.70
20368;BME280;10343;52.402;9.796;2023-02-15T13:01:10;102021.22;;;12.19;55.90
20368;BME280;10343;52.402;9.796;2023-02-15T13:03:58;102021.25;;;12.13;56.60
20368;BME280;10343;52.402;9.796;2023-02-15T13:06:27;102008.75;;;12.25;55.89
20368;BME280;10343;52.402;9.796;2023-02-15T13:08:57;102006.19;;;12.14;55.98
20368;BME280;10343;52.402;9.796;2023-02-15T13:11:29;102011.63;;;11.95;56.83
20368;BME280;10343;52.402;9.796;2023-02-15T13:14:02;101996.34;;;12.23;55.97
20368;BME280;10343;52.402;9.796;2023-02-15T13:16:32;101991.50;;;12.64;55.27
20368;BME280;10343;52.402;9.796;2023-02-15T13:19:06;101984.22;;;12.82;54.07
20368;BME280;10343;52.402;9.796;2023-02-15T13:21:40;101988.97;;;12.52;54.37
20368;BME280;10343;52.402;9.796;2023-02-15T13:24:17;101983.22;;;12.03;55.74
20368;BME280;10343;52.402;9.796;2023-02-15T13:26:47;101979.50;;;12.26;55.31